KCJR

Culpeper Regional Airport

Culpeper, Virginia, USA
METAR KCJR 201855Z AUTO 00000KT 10SM SCT070 19/10 A2974 RMK AO2 T01930101
Observed Flight Rules
Oct-20 @ 18:55 UTC (25 minutes ago) Visual Flight Rules
Visibility Clouds
10 miles
  • Scattered at 7,000' AGL
Temperatures Readings
Current 19°C / 66°F
Dewpoint 10°C / 50°F
Humidity 56%
Altimeter 29.74" Hg
Pressure 1007 hPa
Elevation 97
METAR KCJR 201855Z AUTO 00000KT 10SM SCT070 19/10 A2974 RMK AO2 T01930101
Observed Flight Rules
Oct-20 @ 18:55 UTC
(25 minutes ago)
VFR
Clouds
  • Scattered at 7,000' AGL
Temperature Dewpoint
19°C / 66°F 10°C / 50°F
Humidity Altimeter Pressure
56% 29.74" Hg 1007 hPa